createdAt,value
2022-09-12T00:00:32.012Z,98778.38
2022-09-12T00:01:33.791Z,98781.84
2022-09-12T00:02:35.719Z,98782.09
2022-09-12T00:03:40.570Z,98775.94
2022-09-12T00:04:42.376Z,98777.00
2022-09-12T00:05:47.106Z,98774.56
2022-09-12T00:06:48.931Z,98772.72
2022-09-12T00:07:51.089Z,98772.72
2022-09-12T00:08:59.196Z,98778.28
2022-09-12T00:10:00.911Z,98776.41
2022-09-12T00:11:08.426Z,98777.47
2022-09-12T00:12:10.171Z,98772.13
2022-09-12T00:13:12.383Z,98778.50
2022-09-12T00:14:18.822Z,98781.19
2022-09-12T00:15:20.740Z,98776.88
2022-09-12T00:16:27.157Z,98773.41
2022-09-12T00:17:29.130Z,98775.84
2022-09-12T00:18:32.234Z,98778.94
2022-09-12T00:19:34.151Z,98774.66
2022-09-12T00:20:35.984Z,98776.75
2022-09-12T00:21:40.490Z,98775.94
2022-09-12T00:22:42.225Z,98768.41
2022-09-12T00:23:44.836Z,98772.94
2022-09-12T00:24:46.547Z,98775.03
2022-09-12T00:25:49.179Z,98773.97
2022-09-12T00:26:51.021Z,98773.19
2022-09-12T00:27:52.759Z,98774.41
2022-09-12T00:28:54.622Z,98772.56
2022-09-12T00:29:56.459Z,98767.47
2022-09-12T00:30:58.168Z,98769.91
2022-09-12T00:31:59.923Z,98772.22
2022-09-12T00:33:01.703Z,98774.09
2022-09-12T00:34:03.505Z,98770.59
2022-09-12T00:35:05.914Z,98775.94
2022-09-12T00:36:12.807Z,98766.31
2022-09-12T00:37:14.532Z,98772.13
2022-09-12T00:38:17.370Z,98775.00
2022-09-12T00:39:19.727Z,98773.38
2022-09-12T00:40:21.687Z,98768.28
2022-09-12T00:41:35.023Z,98774.19
2022-09-12T00:42:36.876Z,98769.31
2022-09-12T00:43:51.144Z,98775.91
2022-09-12T00:44:53.819Z,98768.41
2022-09-12T00:45:57.968Z,98770.44
2022-09-12T00:47:14.266Z,98772.31
2022-09-12T00:48:32.066Z,98769.44
2022-09-12T00:49:57.915Z,98776.00
2022-09-12T00:51:01.544Z,98758.31
2022-09-12T00:52:35.388Z,98760.50
2022-09-12T00:53:39.041Z,98762.41
2022-09-12T00:55:15.476Z,98755.03
2022-09-12T00:56:19.748Z,98752.47
2022-09-12T00:57:28.769Z,98749.22
2022-09-12T00:59:03.328Z,98750.84
2022-09-12T01:00:18.139Z,98749.22
2022-09-12T01:01:20.202Z,98751.75
2022-09-12T01:02:22.512Z,98750.13
2022-09-12T01:03:26.008Z,98748.50
2022-09-12T01:04:29.121Z,98748.50
2022-09-12T01:05:36.417Z,98745.03
2022-09-12T01:06:43.303Z,98741.56
2022-09-12T01:07:48.523Z,98740.97
2022-09-12T01:08:52.679Z,98740.16
2022-09-12T01:09:54.979Z,98750.81
2022-09-12T01:10:57.675Z,98738.53
2022-09-12T01:12:02.198Z,98743.88
2022-09-12T01:13:08.296Z,98746.53
2022-09-12T01:14:10.000Z,98745.13
2022-09-12T01:15:12.647Z,98743.50
2022-09-12T01:16:14.620Z,98751.47
2022-09-12T01:17:16.862Z,98752.75
2022-09-12T01:18:59.927Z,98747.56
2022-09-12T01:20:45.895Z,98742.25
2022-09-12T01:22:14.798Z,98744.19
2022-09-12T01:23:52.874Z,98738.63
2022-09-12T01:25:33.829Z,98744.41
2022-09-12T01:26:59.741Z,98733.63
2022-09-12T01:28:26.127Z,98740.00
2022-09-12T01:29:56.476Z,98742.88
2022-09-12T01:31:32.205Z,98729.81
2022-09-12T01:33:23.235Z,98737.78
2022-09-12T01:34:45.184Z,98733.97
2022-09-12T01:36:02.107Z,98739.28
2022-09-12T01:38:13.885Z,98735.34
2022-09-12T01:41:03.804Z,98738.47
2022-09-12T01:42:35.243Z,98729.06
2022-09-12T01:44:02.243Z,98731.38
2022-09-12T01:45:23.423Z,98735.09
2022-09-12T01:46:39.395Z,98726.97
2022-09-12T01:47:58.491Z,98729.84
2022-09-12T01:50:16.324Z,98733.69
2022-09-12T01:51:44.662Z,98736.78
2022-09-12T01:55:09.720Z,98729.50
2022-09-12T01:56:28.640Z,98726.25
2022-09-12T01:57:44.909Z,98725.69
2022-09-12T01:59:16.724Z,98724.63
2022-09-12T02:00:19.950Z,98725.53
2022-09-12T02:01:31.692Z,98728.75
2022-09-12T02:02:40.599Z,98727.16
2022-09-12T02:04:00.012Z,98723.22
2022-09-12T02:05:17.157Z,98717.53
2022-09-12T02:06:37.430Z,98724.25
2022-09-12T02:07:48.664Z,98715.91
2022-09-12T02:09:01.166Z,98721.25
2022-09-12T02:10:21.791Z,98720.78
2022-09-12T02:11:23.771Z,98715.34
2022-09-12T02:12:37.011Z,98713.72
2022-09-12T02:13:52.278Z,98717.78
2022-09-12T02:15:02.203Z,98716.38
2022-09-12T02:16:19.380Z,98719.38
2022-09-12T02:17:26.201Z,98714.75
2022-09-12T02:18:34.165Z,98712.69
2022-09-12T02:19:51.933Z,98708.16
2022-09-12T02:20:56.795Z,98711.06
2022-09-12T02:22:02.025Z,98703.50
2022-09-12T02:23:12.071Z,98712.91
2022-09-12T02:24:17.054Z,98712.09
2022-09-12T02:25:22.908Z,98706.78
2022-09-12T02:26:44.694Z,98715.13
2022-09-12T02:28:29.508Z,98708.41
2022-09-12T02:29:31.308Z,98705.16
2022-09-12T02:31:02.488Z,98708.16
2022-09-12T02:32:38.027Z,98713.25
2022-09-12T02:33:59.010Z,98712.69
2022-09-12T02:35:31.193Z,98705.16
2022-09-12T02:36:55.111Z,98710.03
2022-09-12T02:38:11.285Z,98705.97
2022-09-12T02:39:13.146Z,98701.53
2022-09-12T02:40:15.635Z,98698.88
2022-09-12T02:41:21.331Z,98700.72
2022-09-12T02:42:24.343Z,98702.56
2022-09-12T02:43:26.212Z,98701.53
2022-09-12T02:44:31.652Z,98700.72
2022-09-12T02:45:36.469Z,98701.53
2022-09-12T02:46:52.550Z,98694.13
2022-09-12T02:48:09.164Z,98700.25
2022-09-12T02:49:11.077Z,98701.53
2022-09-12T02:50:13.734Z,98696.44
2022-09-12T02:51:19.228Z,98697.25
2022-09-12T02:52:24.026Z,98697.47
2022-09-12T02:53:26.746Z,98696.66
2022-09-12T02:54:30.567Z,98696.66
2022-09-12T02:55:36.831Z,98695.88
2022-09-12T02:56:43.386Z,98691.34
2022-09-12T02:57:45.111Z,98692.97
2022-09-12T02:58:48.032Z,98695.88
2022-09-12T02:59:57.240Z,98691.34
2022-09-12T03:01:30.870Z,98696.66
2022-09-12T03:03:15.977Z,98695.41
2022-09-12T03:04:48.557Z,98692.59
2022-09-12T03:06:09.424Z,98690.59
2022-09-12T03:07:57.801Z,98693.03
2022-09-12T03:09:44.167Z,98693.47
2022-09-12T03:10:48.499Z,98692.75
2022-09-12T03:12:11.677Z,98696.19
2022-09-12T03:13:42.419Z,98696.44
2022-09-12T03:15:31.984Z,98691.34
2022-09-12T03:17:08.419Z,98683.00
2022-09-12T03:18:21.398Z,98687.94
2022-09-12T03:19:52.515Z,98693.06
2022-09-12T03:21:04.094Z,98690.03
2022-09-12T03:22:18.735Z,98686.78
2022-09-12T03:24:08.352Z,98692.44
2022-09-12T03:25:22.071Z,98694.97
2022-09-12T03:26:44.558Z,98704.22
2022-09-12T03:28:11.721Z,98697.63
2022-09-12T03:29:15.300Z,98689.50
2022-09-12T03:30:17.238Z,98700.59
2022-09-12T03:31:20.142Z,98701.84
2022-09-12T03:32:48.487Z,98691.81
2022-09-12T03:33:50.341Z,98694.53
2022-09-12T03:34:52.027Z,98697.19
2022-09-12T03:35:55.366Z,98696.38
2022-09-12T03:36:57.194Z,98698.44
2022-09-12T03:37:58.913Z,98701.09
2022-09-12T03:39:00.604Z,98702.13
2022-09-12T03:40:07.467Z,98699.47
2022-09-12T03:41:09.260Z,98698.66
2022-09-12T03:42:10.971Z,98701.56
2022-09-12T03:43:12.908Z,98699.94
2022-09-12T03:44:14.608Z,98696.47
2022-09-12T03:45:16.601Z,98694.84
2022-09-12T03:46:18.377Z,98694.84
2022-09-12T03:47:20.132Z,98700.38
2022-09-12T03:48:21.922Z,98696.06
2022-09-12T03:49:23.619Z,98698.72
2022-09-12T03:50:25.407Z,98701.38
2022-09-12T03:51:27.241Z,98701.63
2022-09-12T03:52:28.957Z,98701.63
2022-09-12T03:53:31.441Z,98701.03
2022-09-12T03:54:33.332Z,98697.34
2022-09-12T03:55:36.129Z,98687.97
2022-09-12T03:56:38.038Z,98687.97
2022-09-12T03:57:40.360Z,98689.81
2022-09-12T03:58:42.431Z,98687.38
2022-09-12T03:59:44.553Z,98688.19
2022-09-12T04:00:46.707Z,98696.38
2022-09-12T04:01:48.472Z,98697.19
2022-09-12T04:02:56.201Z,98690.84
2022-09-12T04:03:57.939Z,98696.38
2022-09-12T04:04:59.643Z,98694.53
2022-09-12T04:06:01.546Z,98692.91
2022-09-12T04:07:03.393Z,98693.16
2022-09-12T04:08:05.238Z,98696.63
2022-09-12T04:09:06.930Z,98695.00
2022-09-12T04:10:09.736Z,98694.75
2022-09-12T04:11:15.112Z,98694.75
2022-09-12T04:12:16.875Z,98695.00
2022-09-12T04:13:18.590Z,98696.22
2022-09-12T04:14:20.322Z,98697.03
2022-09-12T04:15:22.049Z,98693.56
2022-09-12T04:16:23.845Z,98694.59
2022-09-12T04:17:25.621Z,98694.38
2022-09-12T04:18:28.182Z,98697.25
2022-09-12T04:19:29.928Z,98692.97
2022-09-12T04:20:31.624Z,98689.28
2022-09-12T04:21:33.732Z,98692.75
2022-09-12T04:22:35.517Z,98693.19
2022-09-12T04:23:37.928Z,98690.53
2022-09-12T04:24:39.608Z,98688.91
2022-09-12T04:25:41.310Z,98691.59
2022-09-12T04:26:43.556Z,98691.59
2022-09-12T04:27:45.253Z,98696.31
2022-09-12T04:28:48.430Z,98698.16
2022-09-12T04:29:50.178Z,98696.53
2022-09-12T04:30:52.461Z,98694.06
2022-09-12T04:31:54.308Z,98704.69
2022-09-12T04:32:56.028Z,98705.72
2022-09-12T04:34:01.220Z,98699.59
2022-09-12T04:35:04.080Z,98709.41
2022-09-12T04:36:16.962Z,98694.28
2022-09-12T04:37:18.943Z,98704.31
2022-09-12T04:38:20.640Z,98709.63
2022-09-12T04:39:22.346Z,98708.81
2022-09-12T04:40:24.080Z,98702.94
2022-09-12T04:41:30.850Z,98710.09
2022-09-12T04:42:32.577Z,98705.59
2022-09-12T04:43:34.635Z,98710.09
2022-09-12T04:44:36.399Z,98704.19
2022-09-12T04:45:38.239Z,98707.66
2022-09-12T04:46:45.502Z,98704.19
2022-09-12T04:47:47.316Z,98702.53
2022-09-12T04:48:53.275Z,98700.91
2022-09-12T04:49:57.722Z,98695.59
2022-09-12T04:51:38.207Z,98693.56
2022-09-12T04:52:39.952Z,98694.16
2022-09-12T04:53:43.627Z,98695.19
2022-09-12T04:54:45.412Z,98694.63
2022-09-12T04:55:47.127Z,98691.16
2022-09-12T04:56:51.083Z,98693.81
2022-09-12T04:57:53.061Z,98696.09
2022-09-12T04:58:57.478Z,98687.91
2022-09-12T05:00:03.871Z,98690.97
2022-09-12T05:01:15.519Z,98691.38
2022-09-12T05:02:17.339Z,98699.56
2022-09-12T05:03:19.095Z,98695.06
2022-09-12T05:04:21.488Z,98688.94
2022-09-12T05:05:23.252Z,98686.28
2022-09-12T05:06:30.081Z,98690.56
2022-09-12T05:07:32.429Z,98689.75
2022-09-12T05:08:35.478Z,98689.75
2022-09-12T05:09:37.232Z,98685.66
2022-09-12T05:10:38.935Z,98684.84
2022-09-12T05:12:03.862Z,98687.50
2022-09-12T05:13:06.065Z,98683.81
2022-09-12T05:14:08.147Z,98684.25
2022-09-12T05:15:10.469Z,98681.84
2022-09-12T05:16:15.581Z,98686.09
2022-09-12T05:17:17.599Z,98683.69
2022-09-12T05:18:19.300Z,98690.59
2022-09-12T05:19:21.046Z,98681.84
2022-09-12T05:20:22.773Z,98685.31
2022-09-12T05:21:26.094Z,98688.75
2022-09-12T05:22:27.837Z,98694.88
2022-09-12T05:23:30.496Z,98692.22
2022-09-12T05:24:32.611Z,98692.22
2022-09-12T05:25:34.310Z,98689.34
2022-09-12T05:26:36.015Z,98692.00
2022-09-12T05:27:37.855Z,98698.56
2022-09-12T05:28:40.373Z,98695.47
2022-09-12T05:29:42.988Z,98702.63
2022-09-12T05:30:45.220Z,98702.03
2022-09-12T05:31:49.952Z,98701.00
2022-09-12T05:32:51.750Z,98702.03
2022-09-12T05:33:55.754Z,98710.00
2022-09-12T05:34:57.487Z,98708.38
2022-09-12T05:35:59.934Z,98709.41
2022-09-12T05:37:01.654Z,98714.50
2022-09-12T05:38:04.408Z,98709.19
2022-09-12T05:39:06.519Z,98711.63
2022-09-12T05:40:09.330Z,98713.47
2022-09-12T05:41:24.677Z,98714.28
2022-09-12T05:42:29.908Z,98714.06
2022-09-12T05:43:33.280Z,98714.28
2022-09-12T05:44:34.985Z,98708.16
2022-09-12T05:45:37.124Z,98706.31
2022-09-12T05:46:45.468Z,98713.25
2022-09-12T05:47:47.730Z,98707.13
2022-09-12T05:48:55.061Z,98709.19
2022-09-12T05:49:59.024Z,98715.09
2022-09-12T05:51:03.509Z,98711.19
2022-09-12T05:52:05.286Z,98710.38
2022-09-12T05:53:08.672Z,98710.38
2022-09-12T05:54:14.232Z,98712.84
2022-09-12T05:55:16.563Z,98715.28
2022-09-12T05:56:22.708Z,98704.66
2022-09-12T05:57:24.449Z,98708.34
2022-09-12T05:58:26.172Z,98714.47
2022-09-12T05:59:28.426Z,98711.00
2022-09-12T06:00:33.436Z,98709.97
2022-09-12T06:01:35.977Z,98703.63
2022-09-12T06:02:37.785Z,98702.81
2022-09-12T06:03:46.350Z,98707.88
2022-09-12T06:04:48.067Z,98707.66
2022-09-12T06:05:50.749Z,98708.72
2022-09-12T06:06:52.793Z,98702.34
2022-09-12T06:07:54.521Z,98702.34
2022-09-12T06:09:00.162Z,98697.84
2022-09-12T06:10:03.848Z,98706.63
2022-09-12T06:11:07.592Z,98700.50
2022-09-12T06:12:09.306Z,98703.78
2022-09-12T06:13:11.001Z,98703.78
2022-09-12T06:14:16.784Z,98700.09
2022-09-12T06:15:18.587Z,98706.03
2022-09-12T06:16:24.580Z,98705.00
2022-09-12T06:17:26.477Z,98705.81
2022-09-12T06:18:28.181Z,98708.25
2022-09-12T06:19:29.927Z,98709.06
2022-09-12T06:20:31.625Z,98703.53
2022-09-12T06:21:35.362Z,98713.09
2022-09-12T06:22:37.329Z,98697.16
2022-09-12T06:23:40.284Z,98705.72
2022-09-12T06:24:42.015Z,98696.72
2022-09-12T06:25:52.013Z,98699.78
2022-09-12T06:26:53.820Z,98699.78
2022-09-12T06:27:55.540Z,98704.88
2022-09-12T06:29:00.693Z,98704.88
2022-09-12T06:30:02.427Z,98710.75
2022-09-12T06:31:12.645Z,98702.56
2022-09-12T06:32:14.496Z,98709.28
2022-09-12T06:33:16.553Z,98705.00
2022-09-12T06:34:19.446Z,98702.13
2022-09-12T06:35:21.210Z,98703.78
2022-09-12T06:36:30.108Z,98701.47
2022-09-12T06:37:32.672Z,98696.97
2022-09-12T06:38:35.401Z,98703.91
2022-09-12T06:39:38.312Z,98705.53
2022-09-12T06:40:44.570Z,98702.44
2022-09-12T06:41:48.485Z,98703.22
2022-09-12T06:42:50.212Z,98699.34
2022-09-12T06:43:52.876Z,98699.34
2022-09-12T06:44:54.625Z,98701.56
2022-09-12T06:45:56.663Z,98700.06
2022-09-12T06:46:58.694Z,98699.25
2022-09-12T06:48:00.450Z,98700.47
2022-09-12T06:49:02.284Z,98700.81
2022-09-12T06:50:04.471Z,98702.22
2022-09-12T06:51:10.570Z,98694.41
2022-09-12T06:52:12.267Z,98700.28
2022-09-12T06:53:13.967Z,98699.25
2022-09-12T06:54:17.156Z,98698.56
2022-09-12T06:55:21.724Z,98698.16
2022-09-12T06:56:27.775Z,98695.84
2022-09-12T06:57:31.360Z,98698.88
2022-09-12T06:58:34.972Z,98703.75
2022-09-12T06:59:36.741Z,98705.97
2022-09-12T07:00:39.564Z,98702.03
2022-09-12T07:01:42.217Z,98704.25
2022-09-12T07:02:44.067Z,98703.63
2022-09-12T07:03:55.790Z,98705.34
2022-09-12T07:04:57.642Z,98704.13
2022-09-12T07:06:12.102Z,98708.53
2022-09-12T07:07:14.602Z,98708.06
2022-09-12T07:08:16.303Z,98701.94
2022-09-12T07:09:18.100Z,98699.06
2022-09-12T07:10:22.414Z,98704.97
2022-09-12T07:11:28.068Z,98697.91
2022-09-12T07:12:30.043Z,98700.34
2022-09-12T07:13:32.245Z,98697.25
2022-09-12T07:14:34.019Z,98700.25
2022-09-12T07:15:36.607Z,98697.38
2022-09-12T07:16:38.473Z,98701.81
2022-09-12T07:17:40.213Z,98697.88
2022-09-12T07:18:42.480Z,98700.88
2022-09-12T07:19:44.194Z,98700.44
2022-09-12T07:20:45.889Z,98698.34
2022-09-12T07:21:47.583Z,98693.16
2022-09-12T07:22:50.600Z,98695.38
2022-09-12T07:23:55.113Z,98700.81
2022-09-12T07:24:57.599Z,98697.44
2022-09-12T07:26:01.483Z,98701.28
2022-09-12T07:27:03.357Z,98695.25
2022-09-12T07:28:05.050Z,98694.78
2022-09-12T07:29:35.260Z,98697.63
2022-09-12T07:30:28.541Z,98698.53
2022-09-12T07:31:30.341Z,98699.72
2022-09-12T07:32:32.120Z,98696.09
2022-09-12T07:33:34.237Z,98698.34
2022-09-12T07:34:36.831Z,98698.44
2022-09-12T07:35:38.593Z,98701.44
2022-09-12T07:36:40.324Z,98685.81
2022-09-12T07:37:42.304Z,98694.47
2022-09-12T07:38:46.778Z,98699.94
2022-09-12T07:39:48.537Z,98695.75
2022-09-12T07:40:50.303Z,98698.53
2022-09-12T07:41:52.040Z,98694.34
2022-09-12T07:42:53.758Z,98694.22
2022-09-12T07:43:58.982Z,98694.91
2022-09-12T07:45:00.717Z,98695.69
2022-09-12T07:46:02.506Z,98701.28
2022-09-12T07:47:04.811Z,98698.72
2022-09-12T07:48:06.638Z,98706.00
2022-09-12T07:49:08.682Z,98706.13
2022-09-12T07:50:10.535Z,98699.03
2022-09-12T07:51:12.270Z,98701.56
2022-09-12T07:52:14.006Z,98700.84
2022-09-12T07:53:15.870Z,98696.41
2022-09-12T07:54:17.835Z,98699.97
2022-09-12T07:55:19.830Z,98699.53
2022-09-12T07:56:26.085Z,98689.72
2022-09-12T07:57:29.216Z,98693.31
2022-09-12T07:58:33.345Z,98695.25
2022-09-12T07:59:52.097Z,98693.72
2022-09-12T08:00:54.912Z,98692.53
2022-09-12T08:01:56.625Z,98699.03
2022-09-12T08:02:58.412Z,98699.38
2022-09-12T08:04:00.866Z,98697.81
2022-09-12T08:05:02.732Z,98702.47
2022-09-12T08:06:16.768Z,98704.97
2022-09-12T08:07:19.127Z,98700.97
2022-09-12T08:08:21.461Z,98709.09
2022-09-12T08:09:23.168Z,98705.94
2022-09-12T08:10:24.966Z,98700.69
2022-09-12T08:11:29.283Z,98708.44
2022-09-12T08:12:32.197Z,98708.53
2022-09-12T08:13:37.052Z,98705.94
2022-09-12T08:14:38.786Z,98705.44
2022-09-12T08:15:40.554Z,98701.22
2022-09-12T08:16:42.565Z,98706.09
2022-09-12T08:17:44.652Z,98713.63
2022-09-12T08:18:46.865Z,98703.25
2022-09-12T08:19:48.609Z,98701.72
2022-09-12T08:20:57.993Z,98694.56
2022-09-12T08:21:59.719Z,98702.09
2022-09-12T08:23:01.467Z,98706.16
2022-09-12T08:24:05.878Z,98698.47
2022-09-12T08:25:08.654Z,98693.22
2022-09-12T08:26:12.352Z,98691.66
2022-09-12T08:27:14.735Z,98695.44
2022-09-12T08:28:16.525Z,98692.38
2022-09-12T08:29:18.273Z,98682.63
2022-09-12T08:30:20.061Z,98688.84
2022-09-12T08:31:25.496Z,98683.34
2022-09-12T08:32:27.231Z,98687.13
2022-09-12T08:33:33.256Z,98688.22
2022-09-12T08:34:35.113Z,98694.47
2022-09-12T08:35:36.824Z,98690.22
2022-09-12T08:36:38.717Z,98686.81
2022-09-12T08:37:40.996Z,98687.91
2022-09-12T08:38:46.223Z,98689.84
2022-09-12T08:39:47.942Z,98689.91
2022-09-12T08:41:03.606Z,98690.28
2022-09-12T08:42:06.996Z,98686.31
2022-09-12T08:43:31.792Z,98685.88
2022-09-12T08:44:51.621Z,98685.91
2022-09-12T08:46:10.716Z,98695.63
2022-09-12T08:47:32.698Z,98694.59
2022-09-12T08:48:35.606Z,98699.13
2022-09-12T08:50:14.632Z,98693.88
2022-09-12T08:51:20.469Z,98691.75
2022-09-12T08:52:51.934Z,98687.56
2022-09-12T08:53:57.021Z,98685.94
2022-09-12T08:55:00.052Z,98687.28
2022-09-12T08:56:05.739Z,98697.25
2022-09-12T08:57:11.700Z,98684.72
2022-09-12T08:58:24.045Z,98689.88
2022-09-12T08:59:25.816Z,98682.38
2022-09-12T09:00:51.904Z,98684.63
2022-09-12T09:02:02.394Z,98680.91
2022-09-12T09:03:53.645Z,98682.34
2022-09-12T09:05:20.231Z,98668.69
2022-09-12T09:06:24.518Z,98673.25
2022-09-12T09:08:07.225Z,98671.44
2022-09-12T09:09:42.939Z,98672.03
2022-09-12T09:10:59.621Z,98664.53
2022-09-12T09:12:43.989Z,98665.13
2022-09-12T09:14:35.223Z,98665.41
2022-09-12T09:16:05.802Z,98663.59
2022-09-12T09:17:20.174Z,98662.56
2022-09-12T09:18:32.162Z,98664.19
2022-09-12T09:19:50.842Z,98661.25
2022-09-12T09:21:08.219Z,98665.28
2022-09-12T09:22:38.100Z,98664.25
2022-09-12T09:23:45.857Z,98661.84
2022-09-12T09:24:59.704Z,98658.91
2022-09-12T09:26:33.346Z,98665.66
2022-09-12T09:27:50.947Z,98662.44
2022-09-12T09:28:55.043Z,98666.50
2022-09-12T09:29:57.295Z,98662.19
2022-09-12T09:30:59.529Z,98662.50
2022-09-12T09:32:14.237Z,98672.72
2022-09-12T09:33:27.687Z,98667.09
2022-09-12T09:34:34.444Z,98668.16
2022-09-12T09:35:48.755Z,98662.53
2022-09-12T09:37:08.627Z,98657.97
2022-09-12T09:38:22.250Z,98658.78
2022-09-12T09:39:59.514Z,98664.16
2022-09-12T09:41:04.025Z,98655.81
2022-09-12T09:43:02.145Z,98658.78
2022-09-12T09:44:04.863Z,98652.34
2022-09-12T09:45:20.653Z,98660.13
2022-09-12T09:46:22.451Z,98657.97
2022-09-12T09:47:24.309Z,98657.69
2022-09-12T09:48:35.850Z,98652.03
2022-09-12T09:49:38.573Z,98653.09
2022-09-12T09:50:40.572Z,98659.56
2022-09-12T09:51:43.215Z,98651.75
2022-09-12T09:52:47.242Z,98664.13
2022-09-12T09:53:56.183Z,98653.31
2022-09-12T09:55:01.673Z,98655.22
2022-09-12T09:56:23.362Z,98662.69
2022-09-12T09:57:37.129Z,98658.94
2022-09-12T09:58:40.278Z,98652.97
2022-09-12T09:59:42.031Z,98644.41
2022-09-12T10:00:43.846Z,98648.97
2022-09-12T10:02:01.992Z,98642.22
2022-09-12T10:03:11.348Z,98645.66
2022-09-12T10:04:29.402Z,98655.84
2022-09-12T10:05:46.923Z,98649.34
2022-09-12T10:06:56.176Z,98657.69
2022-09-12T10:07:58.466Z,98656.84
2022-09-12T10:09:23.032Z,98653.31
2022-09-12T10:10:25.434Z,98656.81
2022-09-12T10:11:28.513Z,98652.72
2022-09-12T10:12:30.216Z,98654.91
2022-09-12T10:13:43.289Z,98651.91
2022-09-12T10:15:03.865Z,98639.75
2022-09-12T10:16:28.972Z,98646.44
2022-09-12T10:17:42.407Z,98646.94
2022-09-12T10:18:44.387Z,98645.34
2022-09-12T10:19:52.670Z,98634.28
2022-09-12T10:21:50.518Z,98646.00
2022-09-12T10:22:52.313Z,98643.03
2022-09-12T10:24:43.480Z,98642.13
2022-09-12T10:25:54.011Z,98641.88
2022-09-12T10:27:11.832Z,98634.56
2022-09-12T10:28:32.927Z,98626.97
2022-09-12T10:29:48.451Z,98636.94
2022-09-12T10:30:56.411Z,98634.47
2022-09-12T10:32:03.208Z,98637.72
2022-09-12T10:33:12.751Z,98628.75
2022-09-12T10:34:36.210Z,98632.44
2022-09-12T10:35:49.322Z,98623.00
2022-09-12T10:36:58.773Z,98624.59
2022-09-12T10:38:06.156Z,98626.44
2022-09-12T10:39:19.251Z,98627.19
2022-09-12T10:40:27.428Z,98620.72
2022-09-12T10:41:41.312Z,98626.56
2022-09-12T10:42:52.372Z,98624.41
2022-09-12T10:44:15.944Z,98622.44
2022-09-12T10:45:22.652Z,98621.63
2022-09-12T10:46:31.117Z,98617.84
2022-09-12T10:47:32.931Z,98616.44
2022-09-12T10:48:35.568Z,98629.38
2022-09-12T10:49:40.185Z,98622.91
2022-09-12T10:50:43.172Z,98624.22
2022-09-12T10:51:44.895Z,98616.03
2022-09-12T10:52:46.978Z,98624.41
2022-09-12T10:53:48.912Z,98621.41
2022-09-12T10:54:54.474Z,98621.06
2022-09-12T10:56:16.601Z,98627.13
2022-09-12T10:57:51.761Z,98620.59
2022-09-12T10:59:36.457Z,98617.81
2022-09-12T11:00:52.388Z,98611.34
2022-09-12T11:02:23.296Z,98619.66
2022-09-12T11:04:16.099Z,98617.91
2022-09-12T11:05:46.698Z,98610.00
2022-09-12T11:07:23.501Z,98615.41
2022-09-12T11:08:44.304Z,98606.31
2022-09-12T11:10:01.186Z,98603.09
2022-09-12T11:11:26.778Z,98601.41
2022-09-12T11:13:03.746Z,98598.31
2022-09-12T11:14:21.608Z,98593.44
2022-09-12T11:15:43.451Z,98585.34
2022-09-12T11:17:00.880Z,98590.44
2022-09-12T11:18:44.921Z,98592.28
2022-09-12T11:20:31.225Z,98589.75
2022-09-12T11:22:13.129Z,98584.03
2022-09-12T11:23:47.831Z,98588.63
2022-09-12T11:25:12.269Z,98582.72
2022-09-12T11:26:22.822Z,98583.03
2022-09-12T11:27:57.788Z,98590.84
2022-09-12T11:29:20.543Z,98586.75
2022-09-12T11:30:22.330Z,98587.63
2022-09-12T11:31:50.366Z,98584.34
2022-09-12T11:33:43.440Z,98579.94
2022-09-12T11:35:17.465Z,98583.22
2022-09-12T11:36:28.584Z,98581.13
2022-09-12T11:38:05.492Z,98578.44
2022-09-12T11:39:14.956Z,98580.91
2022-09-12T11:40:20.388Z,98568.78
2022-09-12T11:41:36.690Z,98574.41
2022-09-12T11:42:40.790Z,98574.69
2022-09-12T11:43:55.320Z,98580.31
2022-09-12T11:45:22.062Z,98572.63
2022-09-12T11:46:24.003Z,98569.72
2022-09-12T11:47:29.619Z,98565.13
2022-09-12T11:49:09.055Z,98564.34
2022-09-12T11:50:30.892Z,98562.47
2022-09-12T11:52:18.634Z,98557.78
2022-09-12T11:53:34.619Z,98560.78
2022-09-12T11:55:17.079Z,98550.47
2022-09-12T11:56:19.027Z,98557.06
2022-09-12T11:57:49.182Z,98553.38
2022-09-12T11:59:15.809Z,98553.06
2022-09-12T12:00:39.646Z,98551.41
2022-09-12T12:01:48.497Z,98553.59
2022-09-12T12:02:59.153Z,98552.72
2022-09-12T12:04:11.569Z,98551.59
2022-09-12T12:05:35.067Z,98546.13
2022-09-12T12:07:10.481Z,98553.53
2022-09-12T12:08:12.746Z,98545.22
2022-09-12T12:09:14.819Z,98548.72
2022-09-12T12:10:53.865Z,98547.16
2022-09-12T12:12:00.900Z,98536.16
2022-09-12T12:13:31.750Z,98538.97
2022-09-12T12:14:44.584Z,98538.69
2022-09-12T12:15:53.008Z,98542.19
2022-09-12T12:16:54.973Z,98545.69
2022-09-12T12:18:14.072Z,98533.16
2022-09-12T12:19:15.689Z,98535.59
2022-09-12T12:20:18.459Z,98538.88
2022-09-12T12:21:29.327Z,98534.75
2022-09-12T12:22:31.375Z,98537.19
2022-09-12T12:23:35.368Z,98533.38
2022-09-12T12:25:21.335Z,98527.66
2022-09-12T12:26:58.730Z,98522.66
2022-09-12T12:28:01.853Z,98526.53
2022-09-12T12:29:03.930Z,98522.25
2022-09-12T12:30:31.225Z,98522.66
2022-09-12T12:32:02.019Z,98519.03
2022-09-12T12:33:13.034Z,98519.34
2022-09-12T12:34:43.498Z,98531.09
2022-09-12T12:36:07.792Z,98523.75
2022-09-12T12:37:29.583Z,98520.44
2022-09-12T12:38:49.509Z,98517.13
2022-09-12T12:40:04.892Z,98516.63
2022-09-12T12:41:18.569Z,98515.75
2022-09-12T12:42:35.447Z,98509.72
2022-09-12T12:43:37.184Z,98518.13
2022-09-12T12:44:50.267Z,98512.91
2022-09-12T12:46:03.200Z,98513.94
2022-09-12T12:47:28.129Z,98509.97
2022-09-12T12:48:35.394Z,98516.50
2022-09-12T12:49:37.393Z,98509.97
2022-09-12T12:50:39.331Z,98508.88
2022-09-12T12:52:01.509Z,98511.66
2022-09-12T12:53:27.770Z,98502.63
2022-09-12T12:54:50.767Z,98503.94
2022-09-12T12:55:56.000Z,98498.81
2022-09-12T12:57:17.446Z,98488.78
2022-09-12T12:58:41.101Z,98491.06
2022-09-12T13:00:28.005Z,98494.78
2022-09-12T13:01:31.249Z,98496.78
2022-09-12T13:02:41.046Z,98491.69
2022-09-12T13:04:14.241Z,98484.22
2022-09-12T13:05:26.688Z,98488.34
2022-09-12T13:06:37.215Z,98483.56
2022-09-12T13:07:40.407Z,98480.34
2022-09-12T13:09:00.044Z,98484.66
2022-09-12T13:10:05.100Z,98481.25
2022-09-12T13:11:16.211Z,98476.31
2022-09-12T13:12:32.371Z,98472.72
2022-09-12T13:13:50.130Z,98478.63
2022-09-12T13:15:01.556Z,98486.13
2022-09-12T13:16:04.022Z,98483.41
2022-09-12T13:17:13.512Z,98478.81
2022-09-12T13:18:33.822Z,98473.00
2022-09-12T13:19:38.086Z,98477.91
2022-09-12T13:21:11.929Z,98474.28
2022-09-12T13:22:14.385Z,98473.97
2022-09-12T13:23:43.383Z,98467.41
2022-09-12T13:24:52.503Z,98468.69
2022-09-12T13:26:00.550Z,98459.50
2022-09-12T13:27:02.960Z,98457.31
2022-09-12T13:28:11.260Z,98459.19
2022-09-12T13:29:25.687Z,98453.66
2022-09-12T13:30:31.736Z,98461.19
2022-09-12T13:31:33.630Z,98440.31
2022-09-12T13:32:36.083Z,98451.22
2022-09-12T13:33:47.005Z,98453.97
2022-09-12T13:35:35.684Z,98454.00
2022-09-12T13:37:07.720Z,98451.00
2022-09-12T13:38:48.452Z,98447.31
2022-09-12T13:39:50.358Z,98448.91
2022-09-12T13:41:17.044Z,98449.22
2022-09-12T13:42:48.493Z,98449.53
2022-09-12T13:43:50.904Z,98449.50
2022-09-12T13:45:33.909Z,98438.84
2022-09-12T13:46:35.930Z,98438.31
2022-09-12T13:47:45.709Z,98436.22
2022-09-12T13:48:48.107Z,98439.56
2022-09-12T13:49:50.501Z,98439.41
2022-09-12T13:51:02.074Z,98434.78
2022-09-12T13:52:26.103Z,98434.44